sensor_id;sensor_type;location;lat;lon;timestamp;temperature;humidity
63047;DHT22;62025;39.238;9.126;2024-03-02T00:00:22;11.40;73.10
63047;DHT22;62025;39.238;9.126;2024-03-02T00:02:50;11.30;73.50
63047;DHT22;62025;39.238;9.126;2024-03-02T00:05:20;11.30;73.70
63047;DHT22;62025;39.238;9.126;2024-03-02T00:07:59;11.30;74.00
63047;DHT22;62025;39.238;9.126;2024-03-02T00:10:39;11.30;74.80
63047;DHT22;62025;39.238;9.126;2024-03-02T00:13:06;11.50;74.70
63047;DHT22;62025;39.238;9.126;2024-03-02T00:15:45;11.50;74.40
63047;DHT22;62025;39.238;9.126;2024-03-02T00:18:33;11.60;74.30
63047;DHT22;62025;39.238;9.126;2024-03-02T00:21:00;11.70;74.10
63047;DHT22;62025;39.238;9.126;2024-03-02T00:23:31;11.70;74.10
63047;DHT22;62025;39.238;9.126;2024-03-02T00:25:58;11.80;74.00
63047;DHT22;62025;39.238;9.126;2024-03-02T00:28:27;11.80;73.90
63047;DHT22;62025;39.238;9.126;2024-03-02T00:31:12;11.80;73.40
63047;DHT22;62025;39.238;9.126;2024-03-02T00:33:46;11.80;73.20
63047;DHT22;62025;39.238;9.126;2024-03-02T00:36:14;11.70;72.60
63047;DHT22;62025;39.238;9.126;2024-03-02T00:38:47;11.80;72.30
63047;DHT22;62025;39.238;9.126;2024-03-02T00:41:31;11.80;72.60
63047;DHT22;62025;39.238;9.126;2024-03-02T00:43:59;11.80;72.90
63047;DHT22;62025;39.238;9.126;2024-03-02T00:46:33;11.80;73.00
63047;DHT22;62025;39.238;9.126;2024-03-02T00:49:11;11.80;73.10
63047;DHT22;62025;39.238;9.126;2024-03-02T00:51:40;11.80;73.10
63047;DHT22;62025;39.238;9.126;2024-03-02T00:54:09;11.80;73.10
63047;DHT22;62025;39.238;9.126;2024-03-02T00:56:35;11.90;72.90
63047;DHT22;62025;39.238;9.126;2024-03-02T00:59:01;11.90;72.90
63047;DHT22;62025;39.238;9.126;2024-03-02T01:01:27;11.80;72.80
63047;DHT22;62025;39.238;9.126;2024-03-02T01:03:53;11.80;72.90
63047;DHT22;62025;39.238;9.126;2024-03-02T01:06:19;11.80;73.20
63047;DHT22;62025;39.238;9.126;2024-03-02T01:08:46;11.80;73.10
63047;DHT22;62025;39.238;9.126;2024-03-02T01:11:16;11.80;73.20
63047;DHT22;62025;39.238;9.126;2024-03-02T01:13:47;11.80;73.20
63047;DHT22;62025;39.238;9.126;2024-03-02T01:16:13;11.80;73.10
63047;DHT22;62025;39.238;9.126;2024-03-02T01:18:39;11.70;73.30
63047;DHT22;62025;39.238;9.126;2024-03-02T01:21:05;11.80;73.20
63047;DHT22;62025;39.238;9.126;2024-03-02T01:23:31;11.80;73.20
63047;DHT22;62025;39.238;9.126;2024-03-02T01:25:58;11.80;73.30
63047;DHT22;62025;39.238;9.126;2024-03-02T01:28:24;11.80;73.20
63047;DHT22;62025;39.238;9.126;2024-03-02T01:30:50;11.70;73.50
63047;DHT22;62025;39.238;9.126;2024-03-02T01:33:20;11.70;73.40
63047;DHT22;62025;39.238;9.126;2024-03-02T01:35:47;11.70;73.40
63047;DHT22;62025;39.238;9.126;2024-03-02T01:38:13;11.70;73.50
63047;DHT22;62025;39.238;9.126;2024-03-02T01:40:39;11.70;73.40
63047;DHT22;62025;39.238;9.126;2024-03-02T01:43:08;11.60;73.50
63047;DHT22;62025;39.238;9.126;2024-03-02T01:45:34;11.60;73.60
63047;DHT22;62025;39.238;9.126;2024-03-02T01:48:01;11.60;73.60
63047;DHT22;62025;39.238;9.126;2024-03-02T01:50:29;11.60;73.60
63047;DHT22;62025;39.238;9.126;2024-03-02T01:52:57;11.70;73.50
63047;DHT22;62025;39.238;9.126;2024-03-02T01:55:23;11.70;73.40
63047;DHT22;62025;39.238;9.126;2024-03-02T01:57:49;11.80;73.20
63047;DHT22;62025;39.238;9.126;2024-03-02T02:00:17;11.80;73.20
63047;DHT22;62025;39.238;9.126;2024-03-02T02:02:44;11.70;73.30
63047;DHT22;62025;39.238;9.126;2024-03-02T02:05:10;11.70;73.30
63047;DHT22;62025;39.238;9.126;2024-03-02T02:07:36;11.70;73.30
63047;DHT22;62025;39.238;9.126;2024-03-02T02:10:02;11.80;73.30
63047;DHT22;62025;39.238;9.126;2024-03-02T02:12:29;11.80;73.30
63047;DHT22;62025;39.238;9.126;2024-03-02T02:14:55;11.70;73.30
63047;DHT22;62025;39.238;9.126;2024-03-02T02:17:21;11.70;73.40
63047;DHT22;62025;39.238;9.126;2024-03-02T02:19:47;11.60;73.40
63047;DHT22;62025;39.238;9.126;2024-03-02T02:22:13;11.60;73.40
63047;DHT22;62025;39.238;9.126;2024-03-02T02:24:42;11.60;73.50
63047;DHT22;62025;39.238;9.126;2024-03-02T02:27:09;11.70;73.50
63047;DHT22;62025;39.238;9.126;2024-03-02T02:29:35;11.60;73.60
63047;DHT22;62025;39.238;9.126;2024-03-02T02:32:02;11.60;73.70
63047;DHT22;62025;39.238;9.126;2024-03-02T02:34:28;11.60;73.70
63047;DHT22;62025;39.238;9.126;2024-03-02T02:36:55;11.60;73.70
63047;DHT22;62025;39.238;9.126;2024-03-02T02:39:21;11.60;73.70
63047;DHT22;62025;39.238;9.126;2024-03-02T02:41:50;11.70;73.70
63047;DHT22;62025;39.238;9.126;2024-03-02T02:44:16;11.60;73.70
63047;DHT22;62025;39.238;9.126;2024-03-02T02:46:42;11.70;73.50
63047;DHT22;62025;39.238;9.126;2024-03-02T02:49:08;11.70;73.30
63047;DHT22;62025;39.238;9.126;2024-03-02T02:51:34;11.80;73.30
63047;DHT22;62025;39.238;9.126;2024-03-02T02:54:00;11.70;73.30
63047;DHT22;62025;39.238;9.126;2024-03-02T02:56:26;11.70;73.40
63047;DHT22;62025;39.238;9.126;2024-03-02T02:58:52;11.70;73.60
63047;DHT22;62025;39.238;9.126;2024-03-02T03:01:18;11.70;73.70
63047;DHT22;62025;39.238;9.126;2024-03-02T03:03:45;11.70;73.80
63047;DHT22;62025;39.238;9.126;2024-03-02T03:06:11;11.70;73.70
63047;DHT22;62025;39.238;9.126;2024-03-02T03:08:38;11.60;73.90
63047;DHT22;62025;39.238;9.126;2024-03-02T03:11:04;11.60;74.00
63047;DHT22;62025;39.238;9.126;2024-03-02T03:13:31;11.60;73.90
63047;DHT22;62025;39.238;9.126;2024-03-02T03:15:57;11.50;73.90
63047;DHT22;62025;39.238;9.126;2024-03-02T03:18:23;11.60;74.10
63047;DHT22;62025;39.238;9.126;2024-03-02T03:20:49;11.60;73.80
63047;DHT22;62025;39.238;9.126;2024-03-02T03:23:15;11.70;73.60
63047;DHT22;62025;39.238;9.126;2024-03-02T03:25:45;11.70;73.40
63047;DHT22;62025;39.238;9.126;2024-03-02T03:28:11;11.60;73.30
63047;DHT22;62025;39.238;9.126;2024-03-02T03:30:38;11.60;73.50
63047;DHT22;62025;39.238;9.126;2024-03-02T03:33:05;11.60;73.60
63047;DHT22;62025;39.238;9.126;2024-03-02T03:35:32;11.60;73.70
63047;DHT22;62025;39.238;9.126;2024-03-02T03:37:58;11.60;73.70
63047;DHT22;62025;39.238;9.126;2024-03-02T03:40:24;11.60;73.70
63047;DHT22;62025;39.238;9.126;2024-03-02T03:42:50;11.50;73.90
63047;DHT22;62025;39.238;9.126;2024-03-02T03:45:17;11.50;74.00
63047;DHT22;62025;39.238;9.126;2024-03-02T03:47:43;11.50;74.00
63047;DHT22;62025;39.238;9.126;2024-03-02T03:50:09;11.50;73.90
63047;DHT22;62025;39.238;9.126;2024-03-02T03:52:35;11.60;73.80
63047;DHT22;62025;39.238;9.126;2024-03-02T03:55:01;11.50;73.50
63047;DHT22;62025;39.238;9.126;2024-03-02T03:57:28;11.60;73.50
63047;DHT22;62025;39.238;9.126;2024-03-02T03:59:54;11.50;73.50
63047;DHT22;62025;39.238;9.126;2024-03-02T04:02:20;11.40;73.60
63047;DHT22;62025;39.238;9.126;2024-03-02T04:04:46;11.50;73.60
63047;DHT22;62025;39.238;9.126;2024-03-02T04:07:12;11.50;73.50
63047;DHT22;62025;39.238;9.126;2024-03-02T04:09:38;11.40;73.60
63047;DHT22;62025;39.238;9.126;2024-03-02T04:12:04;11.40;73.60
63047;DHT22;62025;39.238;9.126;2024-03-02T04:14:30;11.40;73.80
63047;DHT22;62025;39.238;9.126;2024-03-02T04:16:56;11.40;73.70
63047;DHT22;62025;39.238;9.126;2024-03-02T04:19:22;11.30;73.80
63047;DHT22;62025;39.238;9.126;2024-03-02T04:21:48;11.30;74.00
63047;DHT22;62025;39.238;9.126;2024-03-02T04:24:14;11.30;74.10
63047;DHT22;62025;39.238;9.126;2024-03-02T04:26:40;11.30;74.10
63047;DHT22;62025;39.238;9.126;2024-03-02T04:29:06;11.30;74.20
63047;DHT22;62025;39.238;9.126;2024-03-02T04:31:32;11.30;74.10
63047;DHT22;62025;39.238;9.126;2024-03-02T04:33:58;11.30;74.30
63047;DHT22;62025;39.238;9.126;2024-03-02T04:36:24;11.30;74.30
63047;DHT22;62025;39.238;9.126;2024-03-02T04:38:50;11.30;74.30
63047;DHT22;62025;39.238;9.126;2024-03-02T04:41:16;11.30;74.50
63047;DHT22;62025;39.238;9.126;2024-03-02T04:43:42;11.30;74.60
63047;DHT22;62025;39.238;9.126;2024-03-02T04:46:08;11.40;74.90
63047;DHT22;62025;39.238;9.126;2024-03-02T04:48:34;11.30;74.70
63047;DHT22;62025;39.238;9.126;2024-03-02T04:51:00;11.30;74.40
63047;DHT22;62025;39.238;9.126;2024-03-02T04:53:26;11.30;74.30
63047;DHT22;62025;39.238;9.126;2024-03-02T04:55:52;11.40;74.20
63047;DHT22;62025;39.238;9.126;2024-03-02T04:58:20;11.40;74.30
63047;DHT22;62025;39.238;9.126;2024-03-02T05:00:46;11.30;74.50
63047;DHT22;62025;39.238;9.126;2024-03-02T05:03:12;11.30;74.60
63047;DHT22;62025;39.238;9.126;2024-03-02T05:05:39;11.30;74.60
63047;DHT22;62025;39.238;9.126;2024-03-02T05:08:05;11.30;74.60
63047;DHT22;62025;39.238;9.126;2024-03-02T05:10:31;11.30;74.70
63047;DHT22;62025;39.238;9.126;2024-03-02T05:12:57;11.30;74.70
63047;DHT22;62025;39.238;9.126;2024-03-02T05:15:24;11.30;74.90
63047;DHT22;62025;39.238;9.126;2024-03-02T05:17:51;11.20;75.00
63047;DHT22;62025;39.238;9.126;2024-03-02T05:20:17;11.20;75.00
63047;DHT22;62025;39.238;9.126;2024-03-02T05:22:43;11.20;75.00
63047;DHT22;62025;39.238;9.126;2024-03-02T05:25:09;11.20;74.90
63047;DHT22;62025;39.238;9.126;2024-03-02T05:27:36;11.20;75.00
63047;DHT22;62025;39.238;9.126;2024-03-02T05:30:02;11.20;75.00
63047;DHT22;62025;39.238;9.126;2024-03-02T05:32:29;11.30;74.90
63047;DHT22;62025;39.238;9.126;2024-03-02T05:34:55;11.30;74.80
63047;DHT22;62025;39.238;9.126;2024-03-02T05:37:21;11.30;74.80
63047;DHT22;62025;39.238;9.126;2024-03-02T05:39:47;11.30;74.80
63047;DHT22;62025;39.238;9.126;2024-03-02T05:42:13;11.30;74.90
63047;DHT22;62025;39.238;9.126;2024-03-02T05:44:40;11.30;74.90
63047;DHT22;62025;39.238;9.126;2024-03-02T05:47:06;11.20;75.00
63047;DHT22;62025;39.238;9.126;2024-03-02T05:49:34;11.10;75.20
63047;DHT22;62025;39.238;9.126;2024-03-02T05:52:01;11.20;75.20
63047;DHT22;62025;39.238;9.126;2024-03-02T05:54:27;11.20;75.30
63047;DHT22;62025;39.238;9.126;2024-03-02T05:56:53;11.20;75.30
63047;DHT22;62025;39.238;9.126;2024-03-02T05:59:19;11.20;75.30
63047;DHT22;62025;39.238;9.126;2024-03-02T06:01:46;11.20;75.10
63047;DHT22;62025;39.238;9.126;2024-03-02T06:04:13;11.20;75.10
63047;DHT22;62025;39.238;9.126;2024-03-02T06:06:43;11.20;75.20
63047;DHT22;62025;39.238;9.126;2024-03-02T06:09:09;11.00;75.40
63047;DHT22;62025;39.238;9.126;2024-03-02T06:11:39;11.00;75.50
63047;DHT22;62025;39.238;9.126;2024-03-02T06:14:07;11.10;75.40
63047;DHT22;62025;39.238;9.126;2024-03-02T06:16:33;11.10;75.40
63047;DHT22;62025;39.238;9.126;2024-03-02T06:19:01;11.20;75.30
63047;DHT22;62025;39.238;9.126;2024-03-02T06:21:28;11.20;75.30
63047;DHT22;62025;39.238;9.126;2024-03-02T06:23:54;11.20;75.20
63047;DHT22;62025;39.238;9.126;2024-03-02T06:26:20;11.30;75.10
63047;DHT22;62025;39.238;9.126;2024-03-02T06:28:46;11.30;75.00
63047;DHT22;62025;39.238;9.126;2024-03-02T06:31:12;11.40;74.90
63047;DHT22;62025;39.238;9.126;2024-03-02T06:33:38;11.60;74.70
63047;DHT22;62025;39.238;9.126;2024-03-02T06:36:05;11.70;74.40
63047;DHT22;62025;39.238;9.126;2024-03-02T06:38:35;11.80;74.30
63047;DHT22;62025;39.238;9.126;2024-03-02T06:41:01;11.80;74.10
63047;DHT22;62025;39.238;9.126;2024-03-02T06:43:27;12.00;73.80
63047;DHT22;62025;39.238;9.126;2024-03-02T06:45:53;12.10;73.50
63047;DHT22;62025;39.238;9.126;2024-03-02T06:48:19;12.20;73.50
63047;DHT22;62025;39.238;9.126;2024-03-02T06:50:49;12.30;73.30
63047;DHT22;62025;39.238;9.126;2024-03-02T06:53:16;12.30;73.00
63047;DHT22;62025;39.238;9.126;2024-03-02T06:55:46;12.40;73.00
63047;DHT22;62025;39.238;9.126;2024-03-02T06:58:13;12.60;72.50
63047;DHT22;62025;39.238;9.126;2024-03-02T07:00:43;12.70;72.20
63047;DHT22;62025;39.238;9.126;2024-03-02T07:03:09;12.80;72.00
63047;DHT22;62025;39.238;9.126;2024-03-02T07:05:35;12.80;72.00
63047;DHT22;62025;39.238;9.126;2024-03-02T07:08:01;13.00;71.70
63047;DHT22;62025;39.238;9.126;2024-03-02T07:10:29;13.10;71.50
63047;DHT22;62025;39.238;9.126;2024-03-02T07:12:54;13.30;70.80
63047;DHT22;62025;39.238;9.126;2024-03-02T07:15:20;13.30;70.20
63047;DHT22;62025;39.238;9.126;2024-03-02T07:17:52;13.40;69.80
63047;DHT22;62025;39.238;9.126;2024-03-02T07:20:18;13.70;69.50
63047;DHT22;62025;39.238;9.126;2024-03-02T07:22:44;13.80;69.10
63047;DHT22;62025;39.238;9.126;2024-03-02T07:25:11;13.90;68.80
63047;DHT22;62025;39.238;9.126;2024-03-02T07:27:37;14.10;68.50
63047;DHT22;62025;39.238;9.126;2024-03-02T07:30:04;14.30;68.40
63047;DHT22;62025;39.238;9.126;2024-03-02T07:32:30;14.30;67.90
63047;DHT22;62025;39.238;9.126;2024-03-02T07:34:56;14.60;67.50
63047;DHT22;62025;39.238;9.126;2024-03-02T07:37:23;14.70;67.20
63047;DHT22;62025;39.238;9.126;2024-03-02T07:39:50;15.00;66.80
63047;DHT22;62025;39.238;9.126;2024-03-02T07:42:17;15.30;66.40
63047;DHT22;62025;39.238;9.126;2024-03-02T07:44:46;15.40;65.70
63047;DHT22;62025;39.238;9.126;2024-03-02T07:47:12;15.60;64.90
63047;DHT22;62025;39.238;9.126;2024-03-02T07:49:38;15.80;64.40
63047;DHT22;62025;39.238;9.126;2024-03-02T07:52:04;15.90;63.70
63047;DHT22;62025;39.238;9.126;2024-03-02T07:54:30;16.10;63.10
63047;DHT22;62025;39.238;9.126;2024-03-02T07:56:57;16.30;62.60
63047;DHT22;62025;39.238;9.126;2024-03-02T07:59:23;16.30;62.20
63047;DHT22;62025;39.238;9.126;2024-03-02T08:01:49;16.60;62.00
63047;DHT22;62025;39.238;9.126;2024-03-02T08:04:16;16.70;61.60
63047;DHT22;62025;39.238;9.126;2024-03-02T08:06:42;16.80;61.30
63047;DHT22;62025;39.238;9.126;2024-03-02T08:09:08;16.80;61.00
63047;DHT22;62025;39.238;9.126;2024-03-02T08:11:37;16.90;60.90
63047;DHT22;62025;39.238;9.126;2024-03-02T08:14:04;16.90;60.60
63047;DHT22;62025;39.238;9.126;2024-03-02T08:16:30;17.10;60.50
63047;DHT22;62025;39.238;9.126;2024-03-02T08:18:56;17.30;60.10
63047;DHT22;62025;39.238;9.126;2024-03-02T08:21:24;17.30;59.50
63047;DHT22;62025;39.238;9.126;2024-03-02T08:23:50;17.40;59.10
63047;DHT22;62025;39.238;9.126;2024-03-02T08:26:17;17.60;58.80
63047;DHT22;62025;39.238;9.126;2024-03-02T08:28:43;17.90;57.60
63047;DHT22;62025;39.238;9.126;2024-03-02T08:31:10;17.90;57.50
63047;DHT22;62025;39.238;9.126;2024-03-02T08:33:36;18.00;56.90
63047;DHT22;62025;39.238;9.126;2024-03-02T08:36:02;18.10;56.10
63047;DHT22;62025;39.238;9.126;2024-03-02T08:38:28;18.30;55.80
63047;DHT22;62025;39.238;9.126;2024-03-02T08:40:55;18.50;55.30
63047;DHT22;62025;39.238;9.126;2024-03-02T08:43:21;18.60;55.10
63047;DHT22;62025;39.238;9.126;2024-03-02T08:45:48;18.80;54.30
63047;DHT22;62025;39.238;9.126;2024-03-02T08:48:14;18.80;54.10
63047;DHT22;62025;39.238;9.126;2024-03-02T08:50:41;18.80;53.50
63047;DHT22;62025;39.238;9.126;2024-03-02T08:53:07;19.00;52.90
63047;DHT22;62025;39.238;9.126;2024-03-02T08:55:33;19.10;53.00
63047;DHT22;62025;39.238;9.126;2024-03-02T08:57:59;19.10;53.10
63047;DHT22;62025;39.238;9.126;2024-03-02T09:00:25;19.30;52.80
63047;DHT22;62025;39.238;9.126;2024-03-02T09:02:51;19.40;52.40
63047;DHT22;62025;39.238;9.126;2024-03-02T09:05:17;19.20;51.90
63047;DHT22;62025;39.238;9.126;2024-03-02T09:07:43;19.10;51.40
63047;DHT22;62025;39.238;9.126;2024-03-02T09:10:09;19.40;51.40
63047;DHT22;62025;39.238;9.126;2024-03-02T09:12:36;19.70;51.30
63047;DHT22;62025;39.238;9.126;2024-03-02T09:15:03;20.10;50.60
63047;DHT22;62025;39.238;9.126;2024-03-02T09:17:30;20.00;49.80
63047;DHT22;62025;39.238;9.126;2024-03-02T09:19:56;20.10;49.80
63047;DHT22;62025;39.238;9.126;2024-03-02T09:22:22;20.20;49.90
63047;DHT22;62025;39.238;9.126;2024-03-02T09:24:48;20.10;49.60
63047;DHT22;62025;39.238;9.126;2024-03-02T09:27:14;20.10;49.50
63047;DHT22;62025;39.238;9.126;2024-03-02T09:29:41;20.30;49.40
63047;DHT22;62025;39.238;9.126;2024-03-02T09:32:08;20.80;48.60
63047;DHT22;62025;39.238;9.126;2024-03-02T09:34:34;20.80;47.90
63047;DHT22;62025;39.238;9.126;2024-03-02T09:37:00;20.30;47.90
63047;DHT22;62025;39.238;9.126;2024-03-02T09:39:26;19.80;49.50
63047;DHT22;62025;39.238;9.126;2024-03-02T09:41:52;19.70;49.20
63047;DHT22;62025;39.238;9.126;2024-03-02T09:44:19;20.10;48.60
63047;DHT22;62025;39.238;9.126;2024-03-02T09:46:49;20.60;48.40
63047;DHT22;62025;39.238;9.126;2024-03-02T09:49:15;20.80;47.60
63047;DHT22;62025;39.238;9.126;2024-03-02T09:51:47;20.90;47.20
63047;DHT22;62025;39.238;9.126;2024-03-02T09:54:13;20.90;47.80
63047;DHT22;62025;39.238;9.126;2024-03-02T09:56:39;20.60;48.80
63047;DHT22;62025;39.238;9.126;2024-03-02T09:59:05;20.70;48.90
63047;DHT22;62025;39.238;9.126;2024-03-02T10:01:32;20.80;47.40
63047;DHT22;62025;39.238;9.126;2024-03-02T10:03:59;21.30;47.70
63047;DHT22;62025;39.238;9.126;2024-03-02T10:06:27;21.40;47.00
63047;DHT22;62025;39.238;9.126;2024-03-02T10:08:55;21.60;46.00
63047;DHT22;62025;39.238;9.126;2024-03-02T10:14:10;21.60;43.90
63047;DHT22;62025;39.238;9.126;2024-03-02T10:16:41;21.40;44.20
63047;DHT22;62025;39.238;9.126;2024-03-02T10:19:16;21.40;44.30
63047;DHT22;62025;39.238;9.126;2024-03-02T10:21:51;21.70;43.50
63047;DHT22;62025;39.238;9.126;2024-03-02T10:24:18;21.40;43.70
63047;DHT22;62025;39.238;9.126;2024-03-02T10:26:45;20.80;44.40
63047;DHT22;62025;39.238;9.126;2024-03-02T10:29:11;20.80;45.00
63047;DHT22;62025;39.238;9.126;2024-03-02T10:31:39;21.10;44.00
63047;DHT22;62025;39.238;9.126;2024-03-02T10:34:10;21.30;43.20
63047;DHT22;62025;39.238;9.126;2024-03-02T10:36:40;21.50;43.30
63047;DHT22;62025;39.238;9.126;2024-03-02T10:39:07;21.10;44.40
63047;DHT22;62025;39.238;9.126;2024-03-02T10:41:38;20.80;44.50
63047;DHT22;62025;39.238;9.126;2024-03-02T10:44:06;20.90;44.20
63047;DHT22;62025;39.238;9.126;2024-03-02T10:46:35;20.60;44.20
63047;DHT22;62025;39.238;9.126;2024-03-02T10:49:03;20.60;45.20
63047;DHT22;62025;39.238;9.126;2024-03-02T10:51:31;20.50;45.50
63047;DHT22;62025;39.238;9.126;2024-03-02T10:53:59;20.70;44.80
63047;DHT22;62025;39.238;9.126;2024-03-02T10:56:44;20.70;44.90
63047;DHT22;62025;39.238;9.126;2024-03-02T10:59:26;21.00;44.70
63047;DHT22;62025;39.238;9.126;2024-03-02T11:02:01;21.00;44.60
63047;DHT22;62025;39.238;9.126;2024-03-02T11:04:29;20.70;45.30
63047;DHT22;62025;39.238;9.126;2024-03-02T11:07:07;20.30;46.10
63047;DHT22;62025;39.238;9.126;2024-03-02T11:09:39;20.00;46.00
63047;DHT22;62025;39.238;9.126;2024-03-02T11:12:13;19.90;46.30
63047;DHT22;62025;39.238;9.126;2024-03-02T11:14:43;19.60;47.00
63047;DHT22;62025;39.238;9.126;2024-03-02T11:17:11;19.90;47.00
63047;DHT22;62025;39.238;9.126;2024-03-02T11:19:38;19.90;46.50
63047;DHT22;62025;39.238;9.126;2024-03-02T11:22:05;20.00;46.70
63047;DHT22;62025;39.238;9.126;2024-03-02T11:24:32;20.10;46.10
63047;DHT22;62025;39.238;9.126;2024-03-02T11:27:00;19.30;47.80
63047;DHT22;62025;39.238;9.126;2024-03-02T11:32:06;19.30;48.10
63047;DHT22;62025;39.238;9.126;2024-03-02T11:34:42;18.90;48.70
63047;DHT22;62025;39.238;9.126;2024-03-02T11:37:13;18.90;49.30
63047;DHT22;62025;39.238;9.126;2024-03-02T11:39:46;18.30;50.50
63047;DHT22;62025;39.238;9.126;2024-03-02T11:42:15;17.80;52.10
63047;DHT22;62025;39.238;9.126;2024-03-02T11:44:48;18.10;51.30
63047;DHT22;62025;39.238;9.126;2024-03-02T11:47:16;18.50;51.00
63047;DHT22;62025;39.238;9.126;2024-03-02T11:49:50;18.20;50.80
63047;DHT22;62025;39.238;9.126;2024-03-02T11:52:17;18.40;50.30
63047;DHT22;62025;39.238;9.126;2024-03-02T11:54:47;18.60;49.40
63047;DHT22;62025;39.238;9.126;2024-03-02T11:57:16;18.70;50.00
63047;DHT22;62025;39.238;9.126;2024-03-02T11:59:46;18.50;49.90
63047;DHT22;62025;39.238;9.126;2024-03-02T12:02:18;18.70;49.10
63047;DHT22;62025;39.238;9.126;2024-03-02T12:04:46;17.90;48.90
63047;DHT22;62025;39.238;9.126;2024-03-02T12:07:23;17.80;49.20
63047;DHT22;62025;39.238;9.126;2024-03-02T12:09:59;18.00;49.30
63047;DHT22;62025;39.238;9.126;2024-03-02T12:12:26;17.90;49.80
63047;DHT22;62025;39.238;9.126;2024-03-02T12:14:53;18.00;49.80
63047;DHT22;62025;39.238;9.126;2024-03-02T12:17:22;18.20;49.60
63047;DHT22;62025;39.238;9.126;2024-03-02T12:19:48;18.30;49.70
63047;DHT22;62025;39.238;9.126;2024-03-02T12:22:15;18.40;49.60
63047;DHT22;62025;39.238;9.126;2024-03-02T12:24:44;18.00;49.90
63047;DHT22;62025;39.238;9.126;2024-03-02T12:27:15;18.10;49.80
63047;DHT22;62025;39.238;9.126;2024-03-02T12:29:41;18.10;49.40
63047;DHT22;62025;39.238;9.126;2024-03-02T12:32:08;17.90;50.30
63047;DHT22;62025;39.238;9.126;2024-03-02T12:34:34;18.00;49.60
63047;DHT22;62025;39.238;9.126;2024-03-02T12:37:00;17.80;49.10
63047;DHT22;62025;39.238;9.126;2024-03-02T12:39:26;17.90;49.50
63047;DHT22;62025;39.238;9.126;2024-03-02T12:41:52;17.90;49.30
63047;DHT22;62025;39.238;9.126;2024-03-02T12:44:20;17.70;50.50
63047;DHT22;62025;39.238;9.126;2024-03-02T12:46:46;17.70;51.50
63047;DHT22;62025;39.238;9.126;2024-03-02T12:49:14;17.80;50.70
63047;DHT22;62025;39.238;9.126;2024-03-02T12:51:43;17.90;50.20
63047;DHT22;62025;39.238;9.126;2024-03-02T12:54:12;18.00;49.20
63047;DHT22;62025;39.238;9.126;2024-03-02T12:56:38;17.90;49.30
63047;DHT22;62025;39.238;9.126;2024-03-02T12:59:05;17.80;50.20
63047;DHT22;62025;39.238;9.126;2024-03-02T13:01:31;17.70;51.10
63047;DHT22;62025;39.238;9.126;2024-03-02T13:03:58;17.80;50.20
63047;DHT22;62025;39.238;9.126;2024-03-02T13:06:25;17.50;50.40
63047;DHT22;62025;39.238;9.126;2024-03-02T13:08:54;17.50;52.90
63047;DHT22;62025;39.238;9.126;2024-03-02T13:11:22;17.20;54.20
63047;DHT22;62025;39.238;9.126;2024-03-02T13:13:51;17.20;54.80
63047;DHT22;62025;39.238;9.126;2024-03-02T13:16:18;17.20;54.90
63047;DHT22;62025;39.238;9.126;2024-03-02T13:18:45;17.20;53.70
63047;DHT22;62025;39.238;9.126;2024-03-02T13:21:11;17.30;53.40
63047;DHT22;62025;39.238;9.126;2024-03-02T13:23:37;17.30;52.60
63047;DHT22;62025;39.238;9.126;2024-03-02T13:26:03;17.40;52.00
63047;DHT22;62025;39.238;9.126;2024-03-02T13:28:30;17.40;52.30
63047;DHT22;62025;39.238;9.126;2024-03-02T13:30:56;17.30;52.10
63047;DHT22;62025;39.238;9.126;2024-03-02T13:33:22;17.40;52.20
63047;DHT22;62025;39.238;9.126;2024-03-02T13:35:49;17.50;52.90
63047;DHT22;62025;39.238;9.126;2024-03-02T13:38:19;17.60;51.90
63047;DHT22;62025;39.238;9.126;2024-03-02T13:40:48;17.70;50.40
63047;DHT22;62025;39.238;9.126;2024-03-02T13:43:18;17.80;49.70
63047;DHT22;62025;39.238;9.126;2024-03-02T13:45:46;17.80;49.90
63047;DHT22;62025;39.238;9.126;2024-03-02T13:48:13;17.90;49.90
63047;DHT22;62025;39.238;9.126;2024-03-02T13:50:40;17.80;49.80
63047;DHT22;62025;39.238;9.126;2024-03-02T13:53:06;17.80;49.40
63047;DHT22;62025;39.238;9.126;2024-03-02T13:55:33;17.90;49.10
63047;DHT22;62025;39.238;9.126;2024-03-02T13:57:59;17.80;49.80
63047;DHT22;62025;39.238;9.126;2024-03-02T14:00:25;17.90;49.50
63047;DHT22;62025;39.238;9.126;2024-03-02T14:02:51;18.00;49.40
63047;DHT22;62025;39.238;9.126;2024-03-02T14:05:18;17.80;48.50
63047;DHT22;62025;39.238;9.126;2024-03-02T14:07:44;17.90;48.40
63047;DHT22;62025;39.238;9.126;2024-03-02T14:10:10;17.90;48.50
63047;DHT22;62025;39.238;9.126;2024-03-02T14:12:37;17.90;49.80
63047;DHT22;62025;39.238;9.126;2024-03-02T14:15:03;17.90;49.30
63047;DHT22;62025;39.238;9.126;2024-03-02T14:17:30;17.90;49.10
63047;DHT22;62025;39.238;9.126;2024-03-02T14:19:59;17.80;49.40
63047;DHT22;62025;39.238;9.126;2024-03-02T14:22:25;17.90;50.00
63047;DHT22;62025;39.238;9.126;2024-03-02T14:24:51;17.90;49.40
63047;DHT22;62025;39.238;9.126;2024-03-02T14:27:17;17.90;48.20
63047;DHT22;62025;39.238;9.126;2024-03-02T14:29:43;17.90;48.10
63047;DHT22;62025;39.238;9.126;2024-03-02T14:32:09;17.90;48.50
63047;DHT22;62025;39.238;9.126;2024-03-02T14:34:35;18.00;49.20
63047;DHT22;62025;39.238;9.126;2024-03-02T14:37:01;18.00;48.00
63047;DHT22;62025;39.238;9.126;2024-03-02T14:39:28;18.00;48.70
63047;DHT22;62025;39.238;9.126;2024-03-02T14:41:55;17.90;48.80
63047;DHT22;62025;39.238;9.126;2024-03-02T14:44:21;18.00;49.40
63047;DHT22;62025;39.238;9.126;2024-03-02T14:46:48;18.00;49.40
63047;DHT22;62025;39.238;9.126;2024-03-02T14:49:14;18.00;49.50
63047;DHT22;62025;39.238;9.126;2024-03-02T14:51:40;18.00;50.00
63047;DHT22;62025;39.238;9.126;2024-03-02T14:54:06;18.00;49.60
63047;DHT22;62025;39.238;9.126;2024-03-02T14:56:32;17.90;49.70
63047;DHT22;62025;39.238;9.126;2024-03-02T14:58:58;17.90;49.30
63047;DHT22;62025;39.238;9.126;2024-03-02T15:01:24;17.90;48.70
63047;DHT22;62025;39.238;9.126;2024-03-02T15:03:51;18.00;49.40
63047;DHT22;62025;39.238;9.126;2024-03-02T15:06:18;17.90;49.00
63047;DHT22;62025;39.238;9.126;2024-03-02T15:08:44;17.90;48.90
63047;DHT22;62025;39.238;9.126;2024-03-02T15:11:12;17.90;49.40
63047;DHT22;62025;39.238;9.126;2024-03-02T15:13:38;17.80;49.20
63047;DHT22;62025;39.238;9.126;2024-03-02T15:16:05;17.80;50.00
63047;DHT22;62025;39.238;9.126;2024-03-02T15:18:31;17.90;50.70
63047;DHT22;62025;39.238;9.126;2024-03-02T15:20:57;17.90;50.70
63047;DHT22;62025;39.238;9.126;2024-03-02T15:23:22;17.90;49.90
63047;DHT22;62025;39.238;9.126;2024-03-02T15:25:49;17.90;50.10
63047;DHT22;62025;39.238;9.126;2024-03-02T15:28:15;17.80;48.70
63047;DHT22;62025;39.238;9.126;2024-03-02T15:30:41;17.60;50.40
63047;DHT22;62025;39.238;9.126;2024-03-02T15:33:07;17.60;51.10
63047;DHT22;62025;39.238;9.126;2024-03-02T15:35:33;17.60;52.00